sensor_id;sensor_type;location;lat;lon;timestamp;P1;durP1;ratioP1;P2;durP2;ratioP2
25915;SDS011;13719;48.188;11.618;2024-02-21T00:00:36;2.38;;;1.10;;
25915;SDS011;13719;48.188;11.618;2024-02-21T00:03:06;2.47;;;1.38;;
25915;SDS011;13719;48.188;11.618;2024-02-21T00:05:35;1.45;;;1.20;;
25915;SDS011;13719;48.188;11.618;2024-02-21T00:08:04;5.10;;;1.52;;
25915;SDS011;13719;48.188;11.618;2024-02-21T00:10:32;4.68;;;0.90;;
25915;SDS011;13719;48.188;11.618;2024-02-21T00:13:01;3.17;;;1.10;;
25915;SDS011;13719;48.188;11.618;2024-02-21T00:15:31;3.42;;;1.10;;
25915;SDS011;13719;48.188;11.618;2024-02-21T00:17:59;3.70;;;1.55;;
25915;SDS011;13719;48.188;11.618;2024-02-21T00:20:28;3.35;;;1.17;;
25915;SDS011;13719;48.188;11.618;2024-02-21T00:22:57;4.25;;;1.00;;
25915;SDS011;13719;48.188;11.618;2024-02-21T00:25:25;2.10;;;1.00;;
25915;SDS011;13719;48.188;11.618;2024-02-21T00:27:54;6.00;;;1.52;;
25915;SDS011;13719;48.188;11.618;2024-02-21T00:30:22;4.70;;;1.30;;
25915;SDS011;13719;48.188;11.618;2024-02-21T00:32:52;2.67;;;1.10;;
25915;SDS011;13719;48.188;11.618;2024-02-21T00:35:20;3.75;;;1.13;;
25915;SDS011;13719;48.188;11.618;2024-02-21T00:37:49;4.97;;;1.20;;
25915;SDS011;13719;48.188;11.618;2024-02-21T00:40:17;1.98;;;1.08;;
25915;SDS011;13719;48.188;11.618;2024-02-21T00:42:47;0.90;;;0.85;;
25915;SDS011;13719;48.188;11.618;2024-02-21T00:45:15;1.50;;;1.15;;
25915;SDS011;13719;48.188;11.618;2024-02-21T00:47:44;2.97;;;1.10;;
25915;SDS011;13719;48.188;11.618;2024-02-21T00:50:13;1.10;;;0.98;;
25915;SDS011;13719;48.188;11.618;2024-02-21T00:52:42;2.70;;;1.10;;
25915;SDS011;13719;48.188;11.618;2024-02-21T00:55:11;2.60;;;1.20;;
25915;SDS011;13719;48.188;11.618;2024-02-21T00:57:39;3.03;;;1.00;;
25915;SDS011;13719;48.188;11.618;2024-02-21T01:00:08;2.45;;;1.00;;
25915;SDS011;13719;48.188;11.618;2024-02-21T01:02:36;3.60;;;1.00;;
25915;SDS011;13719;48.188;11.618;2024-02-21T01:05:05;3.95;;;0.98;;
25915;SDS011;13719;48.188;11.618;2024-02-21T01:07:35;1.08;;;0.80;;
25915;SDS011;13719;48.188;11.618;2024-02-21T01:10:03;2.63;;;0.90;;
25915;SDS011;13719;48.188;11.618;2024-02-21T01:12:32;3.28;;;1.00;;
25915;SDS011;13719;48.188;11.618;2024-02-21T01:15:00;3.40;;;1.33;;
25915;SDS011;13719;48.188;11.618;2024-02-21T01:17:29;1.30;;;1.10;;
25915;SDS011;13719;48.188;11.618;2024-02-21T01:19:57;1.55;;;1.20;;
25915;SDS011;13719;48.188;11.618;2024-02-21T01:22:26;3.55;;;1.35;;
25915;SDS011;13719;48.188;11.618;2024-02-21T01:24:56;2.00;;;1.08;;
25915;SDS011;13719;48.188;11.618;2024-02-21T01:27:25;1.73;;;1.05;;
25915;SDS011;13719;48.188;11.618;2024-02-21T01:29:53;2.30;;;0.93;;
25915;SDS011;13719;48.188;11.618;2024-02-21T01:32:21;2.97;;;1.00;;
25915;SDS011;13719;48.188;11.618;2024-02-21T01:34:50;1.88;;;1.00;;
25915;SDS011;13719;48.188;11.618;2024-02-21T01:37:19;0.77;;;0.77;;
25915;SDS011;13719;48.188;11.618;2024-02-21T01:39:48;1.85;;;1.05;;
25915;SDS011;13719;48.188;11.618;2024-02-21T01:42:18;2.28;;;1.48;;
25915;SDS011;13719;48.188;11.618;2024-02-21T01:44:46;1.75;;;1.17;;
25915;SDS011;13719;48.188;11.618;2024-02-21T01:47:15;2.10;;;0.90;;
25915;SDS011;13719;48.188;11.618;2024-02-21T01:49:43;6.07;;;1.10;;
25915;SDS011;13719;48.188;11.618;2024-02-21T01:52:12;4.00;;;1.55;;
25915;SDS011;13719;48.188;11.618;2024-02-21T01:54:40;2.10;;;1.50;;
25915;SDS011;13719;48.188;11.618;2024-02-21T01:57:09;3.83;;;1.33;;
25915;SDS011;13719;48.188;11.618;2024-02-21T01:59:38;2.65;;;1.10;;
25915;SDS011;13719;48.188;11.618;2024-02-21T02:02:07;1.67;;;1.00;;
25915;SDS011;13719;48.188;11.618;2024-02-21T02:04:35;1.90;;;1.17;;
25915;SDS011;13719;48.188;11.618;2024-02-21T02:07:04;3.05;;;1.08;;
25915;SDS011;13719;48.188;11.618;2024-02-21T02:09:34;1.92;;;1.00;;
25915;SDS011;13719;48.188;11.618;2024-02-21T02:12:03;2.45;;;0.85;;
25915;SDS011;13719;48.188;11.618;2024-02-21T02:14:31;2.35;;;1.10;;
25915;SDS011;13719;48.188;11.618;2024-02-21T02:17:01;1.10;;;0.90;;
25915;SDS011;13719;48.188;11.618;2024-02-21T02:19:29;2.65;;;1.13;;
25915;SDS011;13719;48.188;11.618;2024-02-21T02:22:00;2.33;;;1.05;;
25915;SDS011;13719;48.188;11.618;2024-02-21T02:24:35;2.05;;;1.15;;
25915;SDS011;13719;48.188;11.618;2024-02-21T02:27:03;3.97;;;0.90;;
25915;SDS011;13719;48.188;11.618;2024-02-21T02:33:34;2.55;;;1.10;;
25915;SDS011;13719;48.188;11.618;2024-02-21T02:36:03;1.20;;;0.93;;
25915;SDS011;13719;48.188;11.618;2024-02-21T02:38:32;2.00;;;0.88;;
25915;SDS011;13719;48.188;11.618;2024-02-21T02:41:02;1.50;;;1.00;;
25915;SDS011;13719;48.188;11.618;2024-02-21T02:43:30;2.20;;;1.02;;
25915;SDS011;13719;48.188;11.618;2024-02-21T02:45:58;2.20;;;0.98;;
25915;SDS011;13719;48.188;11.618;2024-02-21T02:48:27;1.83;;;1.30;;
25915;SDS011;13719;48.188;11.618;2024-02-21T02:50:55;1.50;;;1.00;;
25915;SDS011;13719;48.188;11.618;2024-02-21T02:53:23;0.88;;;0.80;;
25915;SDS011;13719;48.188;11.618;2024-02-21T02:55:52;1.77;;;1.00;;
25915;SDS011;13719;48.188;11.618;2024-02-21T02:58:22;2.72;;;1.40;;
25915;SDS011;13719;48.188;11.618;2024-02-21T03:00:50;1.08;;;0.88;;
25915;SDS011;13719;48.188;11.618;2024-02-21T03:03:18;1.73;;;1.00;;
25915;SDS011;13719;48.188;11.618;2024-02-21T03:05:47;1.90;;;0.95;;
25915;SDS011;13719;48.188;11.618;2024-02-21T03:08:15;2.63;;;1.02;;
25915;SDS011;13719;48.188;11.618;2024-02-21T03:10:44;2.30;;;0.88;;
25915;SDS011;13719;48.188;11.618;2024-02-21T03:13:12;1.45;;;0.90;;
25915;SDS011;13719;48.188;11.618;2024-02-21T03:15:42;1.73;;;1.00;;
25915;SDS011;13719;48.188;11.618;2024-02-21T03:18:10;1.27;;;0.90;;
25915;SDS011;13719;48.188;11.618;2024-02-21T03:20:39;1.63;;;1.00;;
25915;SDS011;13719;48.188;11.618;2024-02-21T03:23:07;0.80;;;0.80;;
25915;SDS011;13719;48.188;11.618;2024-02-21T03:25:36;1.17;;;0.88;;
25915;SDS011;13719;48.188;11.618;2024-02-21T03:28:04;0.88;;;0.80;;
25915;SDS011;13719;48.188;11.618;2024-02-21T03:30:33;1.70;;;1.00;;
25915;SDS011;13719;48.188;11.618;2024-02-21T03:33:03;2.65;;;0.85;;
25915;SDS011;13719;48.188;11.618;2024-02-21T03:35:31;2.28;;;1.00;;
25915;SDS011;13719;48.188;11.618;2024-02-21T03:37:59;2.63;;;1.25;;
25915;SDS011;13719;48.188;11.618;2024-02-21T03:40:28;2.88;;;0.90;;
25915;SDS011;13719;48.188;11.618;2024-02-21T03:42:56;1.88;;;0.90;;
25915;SDS011;13719;48.188;11.618;2024-02-21T03:45:25;1.75;;;0.98;;
25915;SDS011;13719;48.188;11.618;2024-02-21T03:47:53;2.13;;;0.82;;
25915;SDS011;13719;48.188;11.618;2024-02-21T03:50:23;1.88;;;1.42;;
25915;SDS011;13719;48.188;11.618;2024-02-21T03:52:54;0.75;;;0.70;;
25915;SDS011;13719;48.188;11.618;2024-02-21T03:55:22;1.45;;;0.90;;
25915;SDS011;13719;48.188;11.618;2024-02-21T03:57:51;2.50;;;1.00;;
25915;SDS011;13719;48.188;11.618;2024-02-21T04:00:19;2.17;;;0.70;;
25915;SDS011;13719;48.188;11.618;2024-02-21T04:02:48;2.22;;;0.75;;
25915;SDS011;13719;48.188;11.618;2024-02-21T04:05:16;2.00;;;0.70;;
25915;SDS011;13719;48.188;11.618;2024-02-21T04:07:46;1.83;;;0.93;;
25915;SDS011;13719;48.188;11.618;2024-02-21T04:10:15;0.90;;;0.80;;
25915;SDS011;13719;48.188;11.618;2024-02-21T04:12:43;4.07;;;0.70;;
25915;SDS011;13719;48.188;11.618;2024-02-21T04:15:12;3.13;;;0.75;;
25915;SDS011;13719;48.188;11.618;2024-02-21T04:17:40;0.70;;;0.70;;
25915;SDS011;13719;48.188;11.618;2024-02-21T04:20:13;2.10;;;0.98;;
25915;SDS011;13719;48.188;11.618;2024-02-21T04:22:42;1.27;;;0.82;;
25915;SDS011;13719;48.188;11.618;2024-02-21T04:25:13;1.17;;;0.70;;
25915;SDS011;13719;48.188;11.618;2024-02-21T04:27:41;1.95;;;1.00;;
25915;SDS011;13719;48.188;11.618;2024-02-21T04:30:10;0.70;;;0.70;;
25915;SDS011;13719;48.188;11.618;2024-02-21T04:32:38;0.95;;;0.82;;
25915;SDS011;13719;48.188;11.618;2024-02-21T04:35:07;2.40;;;0.90;;
25915;SDS011;13719;48.188;11.618;2024-02-21T04:37:36;3.47;;;0.85;;
25915;SDS011;13719;48.188;11.618;2024-02-21T04:40:05;1.35;;;0.70;;
25915;SDS011;13719;48.188;11.618;2024-02-21T04:42:35;1.80;;;1.02;;
25915;SDS011;13719;48.188;11.618;2024-02-21T04:45:03;1.52;;;0.90;;
25915;SDS011;13719;48.188;11.618;2024-02-21T04:47:32;1.38;;;0.63;;
25915;SDS011;13719;48.188;11.618;2024-02-21T04:50:01;3.17;;;0.90;;
25915;SDS011;13719;48.188;11.618;2024-02-21T04:52:29;1.58;;;0.80;;
25915;SDS011;13719;48.188;11.618;2024-02-21T04:54:58;2.45;;;1.10;;
25915;SDS011;13719;48.188;11.618;2024-02-21T04:57:26;1.10;;;0.80;;
25915;SDS011;13719;48.188;11.618;2024-02-21T04:59:56;0.70;;;0.70;;
25915;SDS011;13719;48.188;11.618;2024-02-21T05:02:24;0.80;;;0.80;;
25915;SDS011;13719;48.188;11.618;2024-02-21T05:04:53;2.42;;;0.63;;
25915;SDS011;13719;48.188;11.618;2024-02-21T05:07:21;2.13;;;0.75;;
25915;SDS011;13719;48.188;11.618;2024-02-21T05:09:50;0.98;;;0.77;;
25915;SDS011;13719;48.188;11.618;2024-02-21T05:12:18;2.00;;;0.80;;
25915;SDS011;13719;48.188;11.618;2024-02-21T05:14:47;1.67;;;0.90;;
25915;SDS011;13719;48.188;11.618;2024-02-21T05:17:17;1.45;;;0.70;;
25915;SDS011;13719;48.188;11.618;2024-02-21T05:19:45;0.93;;;0.60;;
25915;SDS011;13719;48.188;11.618;2024-02-21T05:22:14;0.98;;;0.77;;
25915;SDS011;13719;48.188;11.618;2024-02-21T05:24:42;2.30;;;1.10;;
25915;SDS011;13719;48.188;11.618;2024-02-21T05:27:10;1.02;;;0.95;;
25915;SDS011;13719;48.188;11.618;2024-02-21T05:29:39;2.58;;;0.90;;
25915;SDS011;13719;48.188;11.618;2024-02-21T05:32:07;0.90;;;0.70;;
25915;SDS011;13719;48.188;11.618;2024-02-21T05:34:37;0.98;;;0.65;;
25915;SDS011;13719;48.188;11.618;2024-02-21T05:37:06;2.67;;;0.82;;
25915;SDS011;13719;48.188;11.618;2024-02-21T05:39:34;1.45;;;0.63;;
25915;SDS011;13719;48.188;11.618;2024-02-21T05:42:03;1.02;;;0.73;;
25915;SDS011;13719;48.188;11.618;2024-02-21T05:44:31;0.90;;;0.88;;
25915;SDS011;13719;48.188;11.618;2024-02-21T05:47:00;0.60;;;0.60;;
25915;SDS011;13719;48.188;11.618;2024-02-21T05:49:28;0.88;;;0.70;;
25915;SDS011;13719;48.188;11.618;2024-02-21T05:51:58;1.08;;;0.73;;
25915;SDS011;13719;48.188;11.618;2024-02-21T05:54:26;1.80;;;0.88;;
25915;SDS011;13719;48.188;11.618;2024-02-21T05:56:55;0.95;;;0.82;;
25915;SDS011;13719;48.188;11.618;2024-02-21T05:59:23;2.30;;;0.80;;
25915;SDS011;13719;48.188;11.618;2024-02-21T06:01:55;3.50;;;1.20;;
25915;SDS011;13719;48.188;11.618;2024-02-21T06:04:24;2.47;;;0.80;;
25915;SDS011;13719;48.188;11.618;2024-02-21T06:06:53;3.65;;;0.90;;
25915;SDS011;13719;48.188;11.618;2024-02-21T06:09:23;1.58;;;0.90;;
25915;SDS011;13719;48.188;11.618;2024-02-21T06:11:51;1.30;;;0.90;;
25915;SDS011;13719;48.188;11.618;2024-02-21T06:14:19;3.67;;;0.90;;
25915;SDS011;13719;48.188;11.618;2024-02-21T06:16:48;0.75;;;0.70;;
25915;SDS011;13719;48.188;11.618;2024-02-21T06:19:16;2.13;;;0.70;;
25915;SDS011;13719;48.188;11.618;2024-02-21T06:21:45;2.95;;;0.80;;
25915;SDS011;13719;48.188;11.618;2024-02-21T06:24:13;2.00;;;0.98;;
25915;SDS011;13719;48.188;11.618;2024-02-21T06:26:43;3.08;;;0.82;;
25915;SDS011;13719;48.188;11.618;2024-02-21T06:29:11;0.80;;;0.70;;
25915;SDS011;13719;48.188;11.618;2024-02-21T06:31:40;0.80;;;0.73;;
25915;SDS011;13719;48.188;11.618;2024-02-21T06:34:09;0.80;;;0.80;;
25915;SDS011;13719;48.188;11.618;2024-02-21T06:36:37;0.98;;;0.80;;
25915;SDS011;13719;48.188;11.618;2024-02-21T06:39:06;0.80;;;0.75;;
25915;SDS011;13719;48.188;11.618;2024-02-21T06:41:34;1.15;;;0.70;;
25915;SDS011;13719;48.188;11.618;2024-02-21T06:44:04;0.88;;;0.88;;
25915;SDS011;13719;48.188;11.618;2024-02-21T06:46:33;0.68;;;0.68;;
25915;SDS011;13719;48.188;11.618;2024-02-21T06:49:01;0.85;;;0.82;;
25915;SDS011;13719;48.188;11.618;2024-02-21T06:51:30;2.55;;;0.90;;
25915;SDS011;13719;48.188;11.618;2024-02-21T06:54:00;0.90;;;0.70;;
25915;SDS011;13719;48.188;11.618;2024-02-21T06:56:29;1.75;;;0.90;;
25915;SDS011;13719;48.188;11.618;2024-02-21T06:58:57;0.95;;;0.80;;
25915;SDS011;13719;48.188;11.618;2024-02-21T07:01:27;2.45;;;0.90;;
25915;SDS011;13719;48.188;11.618;2024-02-21T07:03:56;0.98;;;0.60;;
25915;SDS011;13719;48.188;11.618;2024-02-21T07:06:24;1.00;;;0.80;;
25915;SDS011;13719;48.188;11.618;2024-02-21T07:08:53;1.10;;;0.85;;
25915;SDS011;13719;48.188;11.618;2024-02-21T07:11:21;1.25;;;0.70;;
25915;SDS011;13719;48.188;11.618;2024-02-21T07:13:50;1.23;;;0.80;;
25915;SDS011;13719;48.188;11.618;2024-02-21T07:16:19;2.30;;;0.90;;
25915;SDS011;13719;48.188;11.618;2024-02-21T07:18:49;1.42;;;0.77;;
25915;SDS011;13719;48.188;11.618;2024-02-21T07:21:17;0.85;;;0.80;;
25915;SDS011;13719;48.188;11.618;2024-02-21T07:23:45;1.20;;;0.80;;
25915;SDS011;13719;48.188;11.618;2024-02-21T07:26:14;0.75;;;0.65;;
25915;SDS011;13719;48.188;11.618;2024-02-21T07:28:42;0.60;;;0.60;;
25915;SDS011;13719;48.188;11.618;2024-02-21T07:31:11;0.98;;;0.80;;
25915;SDS011;13719;48.188;11.618;2024-02-21T07:33:39;0.70;;;0.70;;
25915;SDS011;13719;48.188;11.618;2024-02-21T07:36:09;1.70;;;0.70;;
25915;SDS011;13719;48.188;11.618;2024-02-21T07:38:39;1.20;;;0.80;;
25915;SDS011;13719;48.188;11.618;2024-02-21T07:41:07;1.25;;;0.75;;
25915;SDS011;13719;48.188;11.618;2024-02-21T07:43:36;0.70;;;0.70;;
25915;SDS011;13719;48.188;11.618;2024-02-21T07:46:05;1.23;;;0.55;;
25915;SDS011;13719;48.188;11.618;2024-02-21T07:48:33;1.20;;;0.80;;
25915;SDS011;13719;48.188;11.618;2024-02-21T07:51:02;4.30;;;0.80;;
25915;SDS011;13719;48.188;11.618;2024-02-21T07:53:31;0.57;;;0.57;;
25915;SDS011;13719;48.188;11.618;2024-02-21T07:56:00;0.50;;;0.50;;
25915;SDS011;13719;48.188;11.618;2024-02-21T07:58:28;1.33;;;0.65;;
25915;SDS011;13719;48.188;11.618;2024-02-21T08:00:57;0.63;;;0.60;;
25915;SDS011;13719;48.188;11.618;2024-02-21T08:03:25;1.58;;;0.65;;
25915;SDS011;13719;48.188;11.618;2024-02-21T08:05:54;1.02;;;0.70;;
25915;SDS011;13719;48.188;11.618;2024-02-21T08:08:22;1.00;;;0.50;;
25915;SDS011;13719;48.188;11.618;2024-02-21T08:10:52;0.50;;;0.50;;
25915;SDS011;13719;48.188;11.618;2024-02-21T08:13:21;1.38;;;1.05;;
25915;SDS011;13719;48.188;11.618;2024-02-21T08:15:50;2.55;;;1.00;;
25915;SDS011;13719;48.188;11.618;2024-02-21T08:18:18;4.20;;;0.85;;
25915;SDS011;13719;48.188;11.618;2024-02-21T08:20:47;3.50;;;0.60;;
25915;SDS011;13719;48.188;11.618;2024-02-21T08:23:15;0.50;;;0.50;;
25915;SDS011;13719;48.188;11.618;2024-02-21T08:25:44;1.05;;;0.88;;
25915;SDS011;13719;48.188;11.618;2024-02-21T08:28:14;0.45;;;0.45;;
25915;SDS011;13719;48.188;11.618;2024-02-21T08:30:42;3.20;;;0.73;;
25915;SDS011;13719;48.188;11.618;2024-02-21T08:33:14;0.55;;;0.52;;
25915;SDS011;13719;48.188;11.618;2024-02-21T08:35:44;0.98;;;0.52;;
25915;SDS011;13719;48.188;11.618;2024-02-21T08:38:12;1.42;;;0.60;;
25915;SDS011;13719;48.188;11.618;2024-02-21T08:40:41;0.75;;;0.60;;
25915;SDS011;13719;48.188;11.618;2024-02-21T08:43:09;0.63;;;0.60;;
25915;SDS011;13719;48.188;11.618;2024-02-21T08:45:39;0.50;;;0.50;;
25915;SDS011;13719;48.188;11.618;2024-02-21T08:48:07;0.55;;;0.50;;
25915;SDS011;13719;48.188;11.618;2024-02-21T08:50:36;1.92;;;0.80;;
25915;SDS011;13719;48.188;11.618;2024-02-21T08:53:05;0.82;;;0.50;;
25915;SDS011;13719;48.188;11.618;2024-02-21T08:55:33;2.15;;;0.50;;
25915;SDS011;13719;48.188;11.618;2024-02-21T08:58:03;0.55;;;0.50;;
25915;SDS011;13719;48.188;11.618;2024-02-21T09:00:31;3.42;;;0.57;;
25915;SDS011;13719;48.188;11.618;2024-02-21T09:03:01;1.23;;;0.60;;
25915;SDS011;13719;48.188;11.618;2024-02-21T09:05:30;1.65;;;0.65;;
25915;SDS011;13719;48.188;11.618;2024-02-21T09:08:01;4.85;;;0.70;;
25915;SDS011;13719;48.188;11.618;2024-02-21T09:10:31;1.73;;;0.77;;
25915;SDS011;13719;48.188;11.618;2024-02-21T09:12:59;1.48;;;0.80;;
25915;SDS011;13719;48.188;11.618;2024-02-21T09:15:29;0.73;;;0.60;;
25915;SDS011;13719;48.188;11.618;2024-02-21T09:18:01;1.17;;;0.60;;
25915;SDS011;13719;48.188;11.618;2024-02-21T09:20:30;1.95;;;0.60;;
25915;SDS011;13719;48.188;11.618;2024-02-21T09:22:59;0.60;;;0.60;;
25915;SDS011;13719;48.188;11.618;2024-02-21T09:25:27;0.82;;;0.55;;
25915;SDS011;13719;48.188;11.618;2024-02-21T09:27:57;1.10;;;0.70;;
25915;SDS011;13719;48.188;11.618;2024-02-21T09:30:25;0.50;;;0.50;;
25915;SDS011;13719;48.188;11.618;2024-02-21T09:32:54;1.85;;;0.50;;
25915;SDS011;13719;48.188;11.618;2024-02-21T09:35:26;2.00;;;0.70;;
25915;SDS011;13719;48.188;11.618;2024-02-21T09:37:55;0.90;;;0.50;;
25915;SDS011;13719;48.188;11.618;2024-02-21T09:40:23;0.90;;;0.50;;
25915;SDS011;13719;48.188;11.618;2024-02-21T09:42:55;0.95;;;0.60;;
25915;SDS011;13719;48.188;11.618;2024-02-21T09:45:28;2.17;;;0.60;;
25915;SDS011;13719;48.188;11.618;2024-02-21T09:50:47;0.95;;;0.60;;
25915;SDS011;13719;48.188;11.618;2024-02-21T09:53:17;0.65;;;0.45;;
25915;SDS011;13719;48.188;11.618;2024-02-21T09:55:46;1.30;;;0.65;;
25915;SDS011;13719;48.188;11.618;2024-02-21T09:58:15;0.95;;;0.50;;
25915;SDS011;13719;48.188;11.618;2024-02-21T10:00:43;0.75;;;0.50;;
25915;SDS011;13719;48.188;11.618;2024-02-21T10:03:12;1.55;;;0.65;;
25915;SDS011;13719;48.188;11.618;2024-02-21T10:05:45;1.42;;;0.70;;
25915;SDS011;13719;48.188;11.618;2024-02-21T10:08:16;0.70;;;0.60;;
25915;SDS011;13719;48.188;11.618;2024-02-21T10:10:44;0.85;;;0.52;;
25915;SDS011;13719;48.188;11.618;2024-02-21T10:13:23;1.33;;;0.57;;
25915;SDS011;13719;48.188;11.618;2024-02-21T10:16:01;1.35;;;0.50;;
25915;SDS011;13719;48.188;11.618;2024-02-21T10:18:30;0.50;;;0.45;;
25915;SDS011;13719;48.188;11.618;2024-02-21T10:21:02;0.73;;;0.55;;
25915;SDS011;13719;48.188;11.618;2024-02-21T10:23:42;0.57;;;0.50;;
25915;SDS011;13719;48.188;11.618;2024-02-21T10:26:10;3.20;;;0.70;;
25915;SDS011;13719;48.188;11.618;2024-02-21T10:28:39;2.15;;;0.80;;
25915;SDS011;13719;48.188;11.618;2024-02-21T10:31:09;0.82;;;0.60;;
25915;SDS011;13719;48.188;11.618;2024-02-21T10:33:37;0.85;;;0.65;;
25915;SDS011;13719;48.188;11.618;2024-02-21T10:36:06;1.13;;;0.50;;
25915;SDS011;13719;48.188;11.618;2024-02-21T10:38:36;0.82;;;0.50;;
25915;SDS011;13719;48.188;11.618;2024-02-21T10:41:06;1.88;;;0.50;;
25915;SDS011;13719;48.188;11.618;2024-02-21T10:43:37;0.50;;;0.50;;
25915;SDS011;13719;48.188;11.618;2024-02-21T10:46:07;0.80;;;0.60;;
25915;SDS011;13719;48.188;11.618;2024-02-21T10:48:41;1.17;;;0.68;;
25915;SDS011;13719;48.188;11.618;2024-02-21T10:51:14;0.55;;;0.52;;
25915;SDS011;13719;48.188;11.618;2024-02-21T10:53:44;2.05;;;0.60;;
25915;SDS011;13719;48.188;11.618;2024-02-21T10:56:21;1.13;;;0.47;;
25915;SDS011;13719;48.188;11.618;2024-02-21T10:58:51;0.73;;;0.50;;
25915;SDS011;13719;48.188;11.618;2024-02-21T11:01:20;0.77;;;0.77;;
25915;SDS011;13719;48.188;11.618;2024-02-21T11:03:49;0.50;;;0.50;;
25915;SDS011;13719;48.188;11.618;2024-02-21T11:06:18;0.65;;;0.50;;
25915;SDS011;13719;48.188;11.618;2024-02-21T11:08:58;0.57;;;0.50;;
25915;SDS011;13719;48.188;11.618;2024-02-21T11:11:28;1.42;;;0.52;;
25915;SDS011;13719;48.188;11.618;2024-02-21T11:14:05;0.68;;;0.38;;
25915;SDS011;13719;48.188;11.618;2024-02-21T11:16:35;0.57;;;0.45;;
25915;SDS011;13719;48.188;11.618;2024-02-21T11:19:05;1.27;;;0.40;;
25915;SDS011;13719;48.188;11.618;2024-02-21T11:21:34;0.70;;;0.50;;
25915;SDS011;13719;48.188;11.618;2024-02-21T11:24:03;0.47;;;0.43;;
25915;SDS011;13719;48.188;11.618;2024-02-21T11:26:36;0.82;;;0.50;;
25915;SDS011;13719;48.188;11.618;2024-02-21T11:29:05;0.50;;;0.50;;
25915;SDS011;13719;48.188;11.618;2024-02-21T11:31:39;0.43;;;0.43;;
25915;SDS011;13719;48.188;11.618;2024-02-21T11:34:09;1.10;;;0.60;;
25915;SDS011;13719;48.188;11.618;2024-02-21T11:36:46;0.93;;;0.50;;
25915;SDS011;13719;48.188;11.618;2024-02-21T11:39:21;0.40;;;0.40;;
25915;SDS011;13719;48.188;11.618;2024-02-21T11:42:02;2.35;;;0.60;;
25915;SDS011;13719;48.188;11.618;2024-02-21T11:44:31;1.85;;;0.60;;
25915;SDS011;13719;48.188;11.618;2024-02-21T11:46:59;0.40;;;0.40;;
25915;SDS011;13719;48.188;11.618;2024-02-21T11:49:30;0.50;;;0.50;;
25915;SDS011;13719;48.188;11.618;2024-02-21T11:51:59;1.02;;;0.65;;
25915;SDS011;13719;48.188;11.618;2024-02-21T11:54:30;0.47;;;0.47;;
25915;SDS011;13719;48.188;11.618;2024-02-21T11:56:59;0.40;;;0.40;;
25915;SDS011;13719;48.188;11.618;2024-02-21T11:59:30;0.95;;;0.50;;
25915;SDS011;13719;48.188;11.618;2024-02-21T12:01:59;2.45;;;0.50;;
25915;SDS011;13719;48.188;11.618;2024-02-21T12:04:29;0.50;;;0.30;;
25915;SDS011;13719;48.188;11.618;2024-02-21T12:06:58;0.47;;;0.40;;
25915;SDS011;13719;48.188;11.618;2024-02-21T12:09:27;0.40;;;0.40;;
25915;SDS011;13719;48.188;11.618;2024-02-21T12:11:58;0.57;;;0.45;;
25915;SDS011;13719;48.188;11.618;2024-02-21T12:14:27;0.43;;;0.40;;
25915;SDS011;13719;48.188;11.618;2024-02-21T12:16:58;0.77;;;0.40;;
25915;SDS011;13719;48.188;11.618;2024-02-21T12:19:28;0.40;;;0.40;;
25915;SDS011;13719;48.188;11.618;2024-02-21T12:21:58;1.85;;;0.60;;
25915;SDS011;13719;48.188;11.618;2024-02-21T12:24:28;0.30;;;0.30;;
25915;SDS011;13719;48.188;11.618;2024-02-21T12:26:57;1.17;;;0.45;;
25915;SDS011;13719;48.188;11.618;2024-02-21T12:29:26;1.40;;;0.50;;
25915;SDS011;13719;48.188;11.618;2024-02-21T12:31:57;0.40;;;0.40;;
25915;SDS011;13719;48.188;11.618;2024-02-21T12:34:26;0.47;;;0.40;;
25915;SDS011;13719;48.188;11.618;2024-02-21T12:37:14;0.80;;;0.60;;
25915;SDS011;13719;48.188;11.618;2024-02-21T12:39:42;0.50;;;0.50;;
25915;SDS011;13719;48.188;11.618;2024-02-21T12:42:11;0.52;;;0.40;;
25915;SDS011;13719;48.188;11.618;2024-02-21T12:44:39;1.88;;;0.90;;
25915;SDS011;13719;48.188;11.618;2024-02-21T12:47:10;0.95;;;0.63;;
25915;SDS011;13719;48.188;11.618;2024-02-21T12:49:38;0.30;;;0.30;;
25915;SDS011;13719;48.188;11.618;2024-02-21T12:52:11;0.80;;;0.40;;
25915;SDS011;13719;48.188;11.618;2024-02-21T12:54:40;0.63;;;0.63;;
25915;SDS011;13719;48.188;11.618;2024-02-21T12:57:09;0.40;;;0.40;;
25915;SDS011;13719;48.188;11.618;2024-02-21T12:59:37;1.02;;;0.57;;
25915;SDS011;13719;48.188;11.618;2024-02-21T13:02:06;0.40;;;0.40;;
25915;SDS011;13719;48.188;11.618;2024-02-21T13:04:36;0.30;;;0.30;;
25915;SDS011;13719;48.188;11.618;2024-02-21T13:07:07;0.32;;;0.30;;
25915;SDS011;13719;48.188;11.618;2024-02-21T13:09:35;0.43;;;0.32;;
25915;SDS011;13719;48.188;11.618;2024-02-21T13:12:04;0.30;;;0.30;;
25915;SDS011;13719;48.188;11.618;2024-02-21T13:14:33;0.52;;;0.40;;
25915;SDS011;13719;48.188;11.618;2024-02-21T13:17:01;0.40;;;0.40;;
25915;SDS011;13719;48.188;11.618;2024-02-21T13:19:30;0.32;;;0.32;;
25915;SDS011;13719;48.188;11.618;2024-02-21T13:22:00;0.70;;;0.50;;
25915;SDS011;13719;48.188;11.618;2024-02-21T13:24:29;0.40;;;0.40;;
25915;SDS011;13719;48.188;11.618;2024-02-21T13:26:58;0.55;;;0.40;;
25915;SDS011;13719;48.188;11.618;2024-02-21T13:29:26;0.30;;;0.30;;
25915;SDS011;13719;48.188;11.618;2024-02-21T13:31:55;0.40;;;0.40;;
25915;SDS011;13719;48.188;11.618;2024-02-21T13:34:23;0.35;;;0.35;;
25915;SDS011;13719;48.188;11.618;2024-02-21T13:36:52;0.30;;;0.30;;
25915;SDS011;13719;48.188;11.618;2024-02-21T13:39:22;2.15;;;0.60;;
25915;SDS011;13719;48.188;11.618;2024-02-21T13:41:50;0.30;;;0.30;;
25915;SDS011;13719;48.188;11.618;2024-02-21T13:44:19;0.63;;;0.40;;
25915;SDS011;13719;48.188;11.618;2024-02-21T13:46:47;0.43;;;0.40;;
25915;SDS011;13719;48.188;11.618;2024-02-21T13:49:16;0.60;;;0.40;;
25915;SDS011;13719;48.188;11.618;2024-02-21T13:51:44;0.50;;;0.35;;
25915;SDS011;13719;48.188;11.618;2024-02-21T13:54:13;0.57;;;0.40;;
25915;SDS011;13719;48.188;11.618;2024-02-21T13:56:44;1.98;;;0.50;;
25915;SDS011;13719;48.188;11.618;2024-02-21T13:59:13;0.38;;;0.38;;
25915;SDS011;13719;48.188;11.618;2024-02-21T14:01:41;0.30;;;0.30;;
25915;SDS011;13719;48.188;11.618;2024-02-21T14:04:10;0.30;;;0.30;;
25915;SDS011;13719;48.188;11.618;2024-02-21T14:06:39;0.40;;;0.40;;
25915;SDS011;13719;48.188;11.618;2024-02-21T14:09:10;1.52;;;0.40;;
25915;SDS011;13719;48.188;11.618;2024-02-21T14:11:38;0.55;;;0.40;;
25915;SDS011;13719;48.188;11.618;2024-02-21T14:14:09;0.30;;;0.30;;
25915;SDS011;13719;48.188;11.618;2024-02-21T14:16:38;0.63;;;0.50;;
25915;SDS011;13719;48.188;11.618;2024-02-21T14:19:06;0.40;;;0.40;;
25915;SDS011;13719;48.188;11.618;2024-02-21T14:21:36;0.50;;;0.40;;
25915;SDS011;13719;48.188;11.618;2024-02-21T14:24:04;0.40;;;0.40;;
25915;SDS011;13719;48.188;11.618;2024-02-21T14:26:33;0.40;;;0.40;;
25915;SDS011;13719;48.188;11.618;2024-02-21T14:29:02;0.65;;;0.47;;
25915;SDS011;13719;48.188;11.618;2024-02-21T14:31:32;0.30;;;0.30;;
25915;SDS011;13719;48.188;11.618;2024-02-21T14:34:01;1.42;;;0.70;;
25915;SDS011;13719;48.188;11.618;2024-02-21T14:36:30;0.40;;;0.40;;
25915;SDS011;13719;48.188;11.618;2024-02-21T14:38:59;0.30;;;0.30;;
25915;SDS011;13719;48.188;11.618;2024-02-21T14:41:28;0.30;;;0.30;;
25915;SDS011;13719;48.188;11.618;2024-02-21T14:43:56;0.30;;;0.30;;
25915;SDS011;13719;48.188;11.618;2024-02-21T14:46:30;1.20;;;0.50;;
25915;SDS011;13719;48.188;11.618;2024-02-21T14:49:00;3.78;;;0.47;;
25915;SDS011;13719;48.188;11.618;2024-02-21T14:51:29;1.50;;;0.60;;